sensor_id;sensor_type;location;lat;lon;timestamp;P1;durP1;ratioP1;P2;durP2;ratioP2
70367;SDS011;57789;53.868;10.728;2023-05-07T00:00:04;16.53;;;10.27;;
70367;SDS011;57789;53.868;10.728;2023-05-07T00:02:33;15.67;;;11.00;;
70367;SDS011;57789;53.868;10.728;2023-05-07T00:05:00;20.03;;;10.13;;
70367;SDS011;57789;53.868;10.728;2023-05-07T00:07:27;14.40;;;9.80;;
70367;SDS011;57789;53.868;10.728;2023-05-07T00:09:53;12.43;;;9.73;;
70367;SDS011;57789;53.868;10.728;2023-05-07T00:12:19;15.27;;;10.87;;
70367;SDS011;57789;53.868;10.728;2023-05-07T00:14:45;17.53;;;11.17;;
70367;SDS011;57789;53.868;10.728;2023-05-07T00:17:11;19.03;;;11.20;;
70367;SDS011;57789;53.868;10.728;2023-05-07T00:19:36;14.67;;;11.10;;
70367;SDS011;57789;53.868;10.728;2023-05-07T00:22:02;21.27;;;11.30;;
70367;SDS011;57789;53.868;10.728;2023-05-07T00:24:28;14.97;;;9.90;;
70367;SDS011;57789;53.868;10.728;2023-05-07T00:26:54;20.67;;;11.93;;
70367;SDS011;57789;53.868;10.728;2023-05-07T00:29:19;14.70;;;10.73;;
70367;SDS011;57789;53.868;10.728;2023-05-07T00:31:45;16.87;;;11.13;;
70367;SDS011;57789;53.868;10.728;2023-05-07T00:34:11;16.93;;;11.30;;
70367;SDS011;57789;53.868;10.728;2023-05-07T00:36:37;14.50;;;9.53;;
70367;SDS011;57789;53.868;10.728;2023-05-07T00:39:02;19.33;;;10.97;;
70367;SDS011;57789;53.868;10.728;2023-05-07T00:41:29;15.37;;;9.80;;
70367;SDS011;57789;53.868;10.728;2023-05-07T00:43:57;14.70;;;9.97;;
70367;SDS011;57789;53.868;10.728;2023-05-07T00:46:23;13.50;;;9.93;;
70367;SDS011;57789;53.868;10.728;2023-05-07T00:48:50;17.60;;;10.83;;
70367;SDS011;57789;53.868;10.728;2023-05-07T00:51:16;13.70;;;9.80;;
70367;SDS011;57789;53.868;10.728;2023-05-07T00:53:43;12.63;;;9.20;;
70367;SDS011;57789;53.868;10.728;2023-05-07T00:56:09;14.60;;;10.10;;
70367;SDS011;57789;53.868;10.728;2023-05-07T00:58:36;15.50;;;9.87;;
70367;SDS011;57789;53.868;10.728;2023-05-07T01:01:02;14.33;;;9.67;;
70367;SDS011;57789;53.868;10.728;2023-05-07T01:03:28;13.63;;;10.20;;
70367;SDS011;57789;53.868;10.728;2023-05-07T01:05:54;13.50;;;9.37;;
70367;SDS011;57789;53.868;10.728;2023-05-07T01:08:22;13.73;;;9.80;;
70367;SDS011;57789;53.868;10.728;2023-05-07T01:10:51;12.77;;;9.30;;
70367;SDS011;57789;53.868;10.728;2023-05-07T01:13:19;17.13;;;8.60;;
70367;SDS011;57789;53.868;10.728;2023-05-07T01:15:45;11.43;;;8.30;;
70367;SDS011;57789;53.868;10.728;2023-05-07T01:18:11;17.20;;;9.10;;
70367;SDS011;57789;53.868;10.728;2023-05-07T01:20:37;13.23;;;9.07;;
70367;SDS011;57789;53.868;10.728;2023-05-07T01:23:03;12.27;;;8.80;;
70367;SDS011;57789;53.868;10.728;2023-05-07T01:25:29;13.40;;;8.73;;
70367;SDS011;57789;53.868;10.728;2023-05-07T01:27:56;10.33;;;7.80;;
70367;SDS011;57789;53.868;10.728;2023-05-07T01:30:21;11.30;;;8.23;;
70367;SDS011;57789;53.868;10.728;2023-05-07T01:32:50;14.23;;;8.13;;
70367;SDS011;57789;53.868;10.728;2023-05-07T01:35:19;13.37;;;9.00;;
70367;SDS011;57789;53.868;10.728;2023-05-07T01:37:49;11.47;;;8.60;;
70367;SDS011;57789;53.868;10.728;2023-05-07T01:40:15;13.70;;;10.07;;
70367;SDS011;57789;53.868;10.728;2023-05-07T01:42:41;10.13;;;8.13;;
70367;SDS011;57789;53.868;10.728;2023-05-07T01:45:08;11.17;;;8.27;;
70367;SDS011;57789;53.868;10.728;2023-05-07T01:47:37;11.03;;;8.83;;
70367;SDS011;57789;53.868;10.728;2023-05-07T01:50:07;11.90;;;7.77;;
70367;SDS011;57789;53.868;10.728;2023-05-07T01:52:35;9.23;;;7.23;;
70367;SDS011;57789;53.868;10.728;2023-05-07T01:55:03;10.50;;;8.20;;
70367;SDS011;57789;53.868;10.728;2023-05-07T01:57:29;9.77;;;7.10;;
70367;SDS011;57789;53.868;10.728;2023-05-07T01:59:55;10.67;;;7.63;;
70367;SDS011;57789;53.868;10.728;2023-05-07T02:02:21;10.53;;;7.60;;
70367;SDS011;57789;53.868;10.728;2023-05-07T02:04:47;14.27;;;9.13;;
70367;SDS011;57789;53.868;10.728;2023-05-07T02:07:12;12.60;;;7.93;;
70367;SDS011;57789;53.868;10.728;2023-05-07T02:09:38;8.70;;;6.67;;
70367;SDS011;57789;53.868;10.728;2023-05-07T02:12:04;10.60;;;7.47;;
70367;SDS011;57789;53.868;10.728;2023-05-07T02:14:30;9.67;;;7.83;;
70367;SDS011;57789;53.868;10.728;2023-05-07T02:16:56;8.93;;;6.83;;
70367;SDS011;57789;53.868;10.728;2023-05-07T02:19:21;10.20;;;6.70;;
70367;SDS011;57789;53.868;10.728;2023-05-07T02:21:47;10.73;;;6.93;;
70367;SDS011;57789;53.868;10.728;2023-05-07T02:24:13;7.93;;;6.43;;
70367;SDS011;57789;53.868;10.728;2023-05-07T02:26:42;8.33;;;6.60;;
70367;SDS011;57789;53.868;10.728;2023-05-07T02:29:07;12.50;;;7.10;;
70367;SDS011;57789;53.868;10.728;2023-05-07T02:31:33;9.03;;;6.60;;
70367;SDS011;57789;53.868;10.728;2023-05-07T02:33:59;9.87;;;7.40;;
70367;SDS011;57789;53.868;10.728;2023-05-07T02:36:26;10.90;;;7.10;;
70367;SDS011;57789;53.868;10.728;2023-05-07T02:38:52;12.30;;;7.77;;
70367;SDS011;57789;53.868;10.728;2023-05-07T02:41:17;11.27;;;7.17;;
70367;SDS011;57789;53.868;10.728;2023-05-07T02:43:43;9.93;;;6.83;;
70367;SDS011;57789;53.868;10.728;2023-05-07T02:46:09;10.70;;;8.03;;
70367;SDS011;57789;53.868;10.728;2023-05-07T02:48:35;11.43;;;7.20;;
70367;SDS011;57789;53.868;10.728;2023-05-07T02:51:01;13.33;;;8.90;;
70367;SDS011;57789;53.868;10.728;2023-05-07T02:53:28;11.63;;;8.23;;
70367;SDS011;57789;53.868;10.728;2023-05-07T02:55:57;9.90;;;7.87;;
70367;SDS011;57789;53.868;10.728;2023-05-07T02:58:24;11.70;;;8.73;;
70367;SDS011;57789;53.868;10.728;2023-05-07T03:00:51;11.70;;;9.00;;
70367;SDS011;57789;53.868;10.728;2023-05-07T03:03:17;10.30;;;7.33;;
70367;SDS011;57789;53.868;10.728;2023-05-07T03:05:43;12.17;;;8.67;;
70367;SDS011;57789;53.868;10.728;2023-05-07T03:08:09;13.77;;;8.93;;
70367;SDS011;57789;53.868;10.728;2023-05-07T03:10:35;11.40;;;8.60;;
70367;SDS011;57789;53.868;10.728;2023-05-07T03:13:01;9.70;;;8.13;;
70367;SDS011;57789;53.868;10.728;2023-05-07T03:15:28;9.47;;;7.43;;
70367;SDS011;57789;53.868;10.728;2023-05-07T03:17:53;12.70;;;8.30;;
70367;SDS011;57789;53.868;10.728;2023-05-07T03:20:19;10.83;;;8.30;;
70367;SDS011;57789;53.868;10.728;2023-05-07T03:22:45;11.80;;;8.77;;
70367;SDS011;57789;53.868;10.728;2023-05-07T03:25:13;13.53;;;9.20;;
70367;SDS011;57789;53.868;10.728;2023-05-07T03:27:40;12.63;;;8.40;;
70367;SDS011;57789;53.868;10.728;2023-05-07T03:30:07;14.93;;;8.80;;
70367;SDS011;57789;53.868;10.728;2023-05-07T03:32:34;10.27;;;8.30;;
70367;SDS011;57789;53.868;10.728;2023-05-07T03:35:00;12.20;;;8.60;;
70367;SDS011;57789;53.868;10.728;2023-05-07T03:37:27;12.00;;;8.37;;
70367;SDS011;57789;53.868;10.728;2023-05-07T03:39:53;10.33;;;7.90;;
70367;SDS011;57789;53.868;10.728;2023-05-07T03:42:19;9.87;;;7.43;;
70367;SDS011;57789;53.868;10.728;2023-05-07T03:44:44;14.13;;;8.60;;
70367;SDS011;57789;53.868;10.728;2023-05-07T03:47:10;10.00;;;7.30;;
70367;SDS011;57789;53.868;10.728;2023-05-07T03:49:36;11.03;;;7.57;;
70367;SDS011;57789;53.868;10.728;2023-05-07T03:52:02;10.00;;;8.20;;
70367;SDS011;57789;53.868;10.728;2023-05-07T03:54:28;10.53;;;8.07;;
70367;SDS011;57789;53.868;10.728;2023-05-07T03:56:54;9.50;;;7.47;;
70367;SDS011;57789;53.868;10.728;2023-05-07T03:59:19;11.90;;;8.60;;
70367;SDS011;57789;53.868;10.728;2023-05-07T04:01:45;13.97;;;8.57;;
70367;SDS011;57789;53.868;10.728;2023-05-07T04:04:11;11.70;;;8.37;;
70367;SDS011;57789;53.868;10.728;2023-05-07T04:06:37;9.43;;;7.60;;
70367;SDS011;57789;53.868;10.728;2023-05-07T04:09:02;12.73;;;8.30;;
70367;SDS011;57789;53.868;10.728;2023-05-07T04:11:28;9.53;;;7.43;;
70367;SDS011;57789;53.868;10.728;2023-05-07T04:13:54;10.83;;;7.57;;
70367;SDS011;57789;53.868;10.728;2023-05-07T04:16:20;10.80;;;9.00;;
70367;SDS011;57789;53.868;10.728;2023-05-07T04:18:46;11.30;;;8.00;;
70367;SDS011;57789;53.868;10.728;2023-05-07T04:21:15;9.40;;;7.90;;
70367;SDS011;57789;53.868;10.728;2023-05-07T04:23:45;8.60;;;7.43;;
70367;SDS011;57789;53.868;10.728;2023-05-07T04:26:14;11.20;;;8.27;;
70367;SDS011;57789;53.868;10.728;2023-05-07T04:28:40;11.37;;;7.97;;
70367;SDS011;57789;53.868;10.728;2023-05-07T04:31:06;10.40;;;7.97;;
70367;SDS011;57789;53.868;10.728;2023-05-07T04:33:32;10.97;;;8.63;;
70367;SDS011;57789;53.868;10.728;2023-05-07T04:35:58;9.93;;;6.60;;
70367;SDS011;57789;53.868;10.728;2023-05-07T04:38:29;8.73;;;7.20;;
70367;SDS011;57789;53.868;10.728;2023-05-07T04:40:56;10.73;;;7.70;;
70367;SDS011;57789;53.868;10.728;2023-05-07T04:43:23;10.27;;;7.93;;
70367;SDS011;57789;53.868;10.728;2023-05-07T04:45:50;12.77;;;8.00;;
70367;SDS011;57789;53.868;10.728;2023-05-07T04:48:17;10.87;;;7.80;;
70367;SDS011;57789;53.868;10.728;2023-05-07T04:50:48;12.57;;;8.33;;
70367;SDS011;57789;53.868;10.728;2023-05-07T04:53:15;11.67;;;7.10;;
70367;SDS011;57789;53.868;10.728;2023-05-07T04:55:41;10.37;;;7.70;;
70367;SDS011;57789;53.868;10.728;2023-05-07T04:58:07;22.10;;;8.53;;
70367;SDS011;57789;53.868;10.728;2023-05-07T05:00:33;9.10;;;7.03;;
70367;SDS011;57789;53.868;10.728;2023-05-07T05:02:59;9.63;;;7.30;;
70367;SDS011;57789;53.868;10.728;2023-05-07T05:05:25;11.90;;;7.67;;
70367;SDS011;57789;53.868;10.728;2023-05-07T05:07:50;9.20;;;7.43;;
70367;SDS011;57789;53.868;10.728;2023-05-07T05:10:17;12.50;;;6.87;;
70367;SDS011;57789;53.868;10.728;2023-05-07T05:12:44;9.67;;;7.90;;
70367;SDS011;57789;53.868;10.728;2023-05-07T05:15:11;9.03;;;6.90;;
70367;SDS011;57789;53.868;10.728;2023-05-07T05:17:37;10.77;;;7.57;;
70367;SDS011;57789;53.868;10.728;2023-05-07T05:20:04;8.43;;;7.23;;
70367;SDS011;57789;53.868;10.728;2023-05-07T05:22:31;10.60;;;7.00;;
70367;SDS011;57789;53.868;10.728;2023-05-07T05:24:57;8.33;;;6.20;;
70367;SDS011;57789;53.868;10.728;2023-05-07T05:27:23;7.73;;;6.60;;
70367;SDS011;57789;53.868;10.728;2023-05-07T05:29:49;8.93;;;6.27;;
70367;SDS011;57789;53.868;10.728;2023-05-07T05:32:14;9.03;;;6.53;;
70367;SDS011;57789;53.868;10.728;2023-05-07T05:34:40;9.20;;;6.17;;
70367;SDS011;57789;53.868;10.728;2023-05-07T05:37:06;9.60;;;7.70;;
70367;SDS011;57789;53.868;10.728;2023-05-07T05:39:32;9.23;;;7.20;;
70367;SDS011;57789;53.868;10.728;2023-05-07T05:41:57;9.50;;;6.30;;
70367;SDS011;57789;53.868;10.728;2023-05-07T05:44:23;7.83;;;5.90;;
70367;SDS011;57789;53.868;10.728;2023-05-07T05:46:49;11.40;;;5.70;;
70367;SDS011;57789;53.868;10.728;2023-05-07T05:49:15;9.03;;;5.70;;
70367;SDS011;57789;53.868;10.728;2023-05-07T05:51:40;7.90;;;5.57;;
70367;SDS011;57789;53.868;10.728;2023-05-07T05:54:06;6.50;;;5.17;;
70367;SDS011;57789;53.868;10.728;2023-05-07T05:56:32;8.90;;;5.47;;
70367;SDS011;57789;53.868;10.728;2023-05-07T05:58:58;6.93;;;5.43;;
70367;SDS011;57789;53.868;10.728;2023-05-07T06:01:27;10.30;;;5.67;;
70367;SDS011;57789;53.868;10.728;2023-05-07T06:03:53;8.50;;;4.97;;
70367;SDS011;57789;53.868;10.728;2023-05-07T06:06:19;4.80;;;4.20;;
70367;SDS011;57789;53.868;10.728;2023-05-07T06:08:44;7.83;;;5.43;;
70367;SDS011;57789;53.868;10.728;2023-05-07T06:11:10;7.90;;;4.97;;
70367;SDS011;57789;53.868;10.728;2023-05-07T06:13:39;7.73;;;4.50;;
70367;SDS011;57789;53.868;10.728;2023-05-07T06:16:05;5.10;;;4.60;;
70367;SDS011;57789;53.868;10.728;2023-05-07T06:18:31;6.60;;;4.80;;
70367;SDS011;57789;53.868;10.728;2023-05-07T06:20:56;7.37;;;5.37;;
70367;SDS011;57789;53.868;10.728;2023-05-07T06:23:22;8.07;;;4.97;;
70367;SDS011;57789;53.868;10.728;2023-05-07T06:25:48;5.83;;;4.53;;
70367;SDS011;57789;53.868;10.728;2023-05-07T06:28:17;7.13;;;5.30;;
70367;SDS011;57789;53.868;10.728;2023-05-07T06:30:43;7.03;;;5.40;;
70367;SDS011;57789;53.868;10.728;2023-05-07T06:33:10;5.50;;;5.00;;
70367;SDS011;57789;53.868;10.728;2023-05-07T06:35:37;6.23;;;5.07;;
70367;SDS011;57789;53.868;10.728;2023-05-07T06:38:03;8.00;;;5.40;;
70367;SDS011;57789;53.868;10.728;2023-05-07T06:40:29;7.87;;;5.77;;
70367;SDS011;57789;53.868;10.728;2023-05-07T06:42:54;6.70;;;5.33;;
70367;SDS011;57789;53.868;10.728;2023-05-07T06:45:20;6.93;;;5.17;;
70367;SDS011;57789;53.868;10.728;2023-05-07T06:47:46;6.43;;;5.10;;
70367;SDS011;57789;53.868;10.728;2023-05-07T06:50:12;8.30;;;5.57;;
70367;SDS011;57789;53.868;10.728;2023-05-07T06:52:37;6.90;;;4.80;;
70367;SDS011;57789;53.868;10.728;2023-05-07T06:55:03;5.33;;;4.53;;
70367;SDS011;57789;53.868;10.728;2023-05-07T06:57:29;7.03;;;4.30;;
70367;SDS011;57789;53.868;10.728;2023-05-07T06:59:55;5.97;;;3.97;;
70367;SDS011;57789;53.868;10.728;2023-05-07T07:02:21;7.93;;;3.60;;
70367;SDS011;57789;53.868;10.728;2023-05-07T07:04:47;5.10;;;3.30;;
70367;SDS011;57789;53.868;10.728;2023-05-07T07:07:12;4.20;;;3.63;;
70367;SDS011;57789;53.868;10.728;2023-05-07T07:09:38;7.03;;;4.37;;
70367;SDS011;57789;53.868;10.728;2023-05-07T07:12:04;5.47;;;3.97;;
70367;SDS011;57789;53.868;10.728;2023-05-07T07:14:30;5.33;;;4.07;;
70367;SDS011;57789;53.868;10.728;2023-05-07T07:16:56;7.20;;;3.73;;
70367;SDS011;57789;53.868;10.728;2023-05-07T07:19:21;6.27;;;4.10;;
70367;SDS011;57789;53.868;10.728;2023-05-07T07:21:47;5.70;;;4.50;;
70367;SDS011;57789;53.868;10.728;2023-05-07T07:24:13;6.63;;;4.37;;
70367;SDS011;57789;53.868;10.728;2023-05-07T07:26:44;6.10;;;5.13;;
70367;SDS011;57789;53.868;10.728;2023-05-07T07:29:10;4.67;;;4.17;;
70367;SDS011;57789;53.868;10.728;2023-05-07T07:31:36;8.73;;;4.80;;
70367;SDS011;57789;53.868;10.728;2023-05-07T07:34:01;5.37;;;4.57;;
70367;SDS011;57789;53.868;10.728;2023-05-07T07:36:27;10.80;;;5.00;;
70367;SDS011;57789;53.868;10.728;2023-05-07T07:38:55;7.37;;;4.77;;
70367;SDS011;57789;53.868;10.728;2023-05-07T07:41:20;10.33;;;4.97;;
70367;SDS011;57789;53.868;10.728;2023-05-07T07:43:49;7.13;;;4.50;;
70367;SDS011;57789;53.868;10.728;2023-05-07T07:46:15;8.53;;;5.20;;
70367;SDS011;57789;53.868;10.728;2023-05-07T07:48:41;5.20;;;4.70;;
70367;SDS011;57789;53.868;10.728;2023-05-07T07:51:06;15.17;;;7.73;;
70367;SDS011;57789;53.868;10.728;2023-05-07T07:53:32;5.07;;;4.60;;
70367;SDS011;57789;53.868;10.728;2023-05-07T07:55:58;5.80;;;4.73;;
70367;SDS011;57789;53.868;10.728;2023-05-07T07:58:24;7.17;;;4.93;;
70367;SDS011;57789;53.868;10.728;2023-05-07T08:00:50;6.77;;;5.03;;
70367;SDS011;57789;53.868;10.728;2023-05-07T08:03:16;5.20;;;4.70;;
70367;SDS011;57789;53.868;10.728;2023-05-07T08:05:42;6.23;;;5.00;;
70367;SDS011;57789;53.868;10.728;2023-05-07T08:08:08;6.77;;;4.87;;
70367;SDS011;57789;53.868;10.728;2023-05-07T08:10:34;5.50;;;4.50;;
70367;SDS011;57789;53.868;10.728;2023-05-07T08:13:03;7.17;;;4.60;;
70367;SDS011;57789;53.868;10.728;2023-05-07T08:15:29;7.03;;;5.53;;
70367;SDS011;57789;53.868;10.728;2023-05-07T08:17:55;8.50;;;4.67;;
70367;SDS011;57789;53.868;10.728;2023-05-07T08:20:22;8.47;;;5.03;;
70367;SDS011;57789;53.868;10.728;2023-05-07T08:22:48;4.53;;;3.83;;
70367;SDS011;57789;53.868;10.728;2023-05-07T08:25:14;6.80;;;5.30;;
70367;SDS011;57789;53.868;10.728;2023-05-07T08:27:40;5.30;;;4.30;;
70367;SDS011;57789;53.868;10.728;2023-05-07T08:30:06;4.60;;;4.00;;
70367;SDS011;57789;53.868;10.728;2023-05-07T08:32:32;25.73;;;16.87;;
70367;SDS011;57789;53.868;10.728;2023-05-07T08:34:58;5.63;;;5.07;;
70367;SDS011;57789;53.868;10.728;2023-05-07T08:37:25;20.17;;;12.70;;
70367;SDS011;57789;53.868;10.728;2023-05-07T08:39:51;8.30;;;6.77;;
70367;SDS011;57789;53.868;10.728;2023-05-07T08:42:17;5.37;;;4.10;;
70367;SDS011;57789;53.868;10.728;2023-05-07T08:44:44;10.10;;;7.60;;
70367;SDS011;57789;53.868;10.728;2023-05-07T08:47:12;5.77;;;4.60;;
70367;SDS011;57789;53.868;10.728;2023-05-07T08:49:38;5.67;;;4.50;;
70367;SDS011;57789;53.868;10.728;2023-05-07T08:52:04;5.03;;;4.27;;
70367;SDS011;57789;53.868;10.728;2023-05-07T08:54:30;7.70;;;4.27;;
70367;SDS011;57789;53.868;10.728;2023-05-07T08:56:56;6.30;;;4.23;;
70367;SDS011;57789;53.868;10.728;2023-05-07T08:59:22;5.30;;;4.20;;
70367;SDS011;57789;53.868;10.728;2023-05-07T09:01:48;6.90;;;4.60;;
70367;SDS011;57789;53.868;10.728;2023-05-07T09:04:14;5.10;;;4.17;;
70367;SDS011;57789;53.868;10.728;2023-05-07T09:06:40;6.60;;;4.20;;
70367;SDS011;57789;53.868;10.728;2023-05-07T09:09:07;5.10;;;4.03;;
70367;SDS011;57789;53.868;10.728;2023-05-07T09:11:33;6.50;;;4.10;;
70367;SDS011;57789;53.868;10.728;2023-05-07T09:13:59;5.60;;;4.83;;
70367;SDS011;57789;53.868;10.728;2023-05-07T09:16:29;5.27;;;3.87;;
70367;SDS011;57789;53.868;10.728;2023-05-07T09:18:56;5.67;;;3.30;;
70367;SDS011;57789;53.868;10.728;2023-05-07T09:21:23;3.77;;;3.10;;
70367;SDS011;57789;53.868;10.728;2023-05-07T09:23:53;4.70;;;3.50;;
70367;SDS011;57789;53.868;10.728;2023-05-07T09:26:23;6.67;;;3.83;;
70367;SDS011;57789;53.868;10.728;2023-05-07T09:28:50;5.00;;;3.40;;
70367;SDS011;57789;53.868;10.728;2023-05-07T09:31:16;9.10;;;5.27;;
70367;SDS011;57789;53.868;10.728;2023-05-07T09:33:42;4.83;;;4.00;;
70367;SDS011;57789;53.868;10.728;2023-05-07T09:36:09;10.37;;;4.67;;
70367;SDS011;57789;53.868;10.728;2023-05-07T09:38:35;3.60;;;3.30;;
70367;SDS011;57789;53.868;10.728;2023-05-07T09:41:06;3.87;;;2.97;;
70367;SDS011;57789;53.868;10.728;2023-05-07T09:43:36;2.70;;;2.33;;
70367;SDS011;57789;53.868;10.728;2023-05-07T09:46:08;3.67;;;3.37;;
70367;SDS011;57789;53.868;10.728;2023-05-07T09:48:59;4.50;;;3.20;;
70367;SDS011;57789;53.868;10.728;2023-05-07T09:51:34;6.60;;;4.17;;
70367;SDS011;57789;53.868;10.728;2023-05-07T09:54:06;4.77;;;3.70;;
70367;SDS011;57789;53.868;10.728;2023-05-07T09:56:32;2.77;;;2.50;;
70367;SDS011;57789;53.868;10.728;2023-05-07T09:59:00;5.97;;;3.00;;
70367;SDS011;57789;53.868;10.728;2023-05-07T10:01:26;3.60;;;2.70;;
70367;SDS011;57789;53.868;10.728;2023-05-07T10:03:53;5.13;;;4.63;;
70367;SDS011;57789;53.868;10.728;2023-05-07T10:06:20;3.73;;;2.70;;
70367;SDS011;57789;53.868;10.728;2023-05-07T10:08:46;2.70;;;2.40;;
70367;SDS011;57789;53.868;10.728;2023-05-07T10:11:13;3.77;;;2.43;;
70367;SDS011;57789;53.868;10.728;2023-05-07T10:13:41;3.93;;;2.33;;
70367;SDS011;57789;53.868;10.728;2023-05-07T10:16:07;4.80;;;2.57;;
70367;SDS011;57789;53.868;10.728;2023-05-07T10:18:33;3.23;;;2.07;;
70367;SDS011;57789;53.868;10.728;2023-05-07T10:26:44;2.40;;;2.03;;
70367;SDS011;57789;53.868;10.728;2023-05-07T10:35:02;1.77;;;1.50;;
70367;SDS011;57789;53.868;10.728;2023-05-07T10:37:30;2.17;;;1.90;;
70367;SDS011;57789;53.868;10.728;2023-05-07T10:39:57;2.03;;;1.83;;
70367;SDS011;57789;53.868;10.728;2023-05-07T10:42:22;3.53;;;1.80;;
70367;SDS011;57789;53.868;10.728;2023-05-07T10:44:48;3.43;;;1.57;;
70367;SDS011;57789;53.868;10.728;2023-05-07T10:47:15;3.80;;;1.83;;
70367;SDS011;57789;53.868;10.728;2023-05-07T10:54:41;2.83;;;1.97;;
70367;SDS011;57789;53.868;10.728;2023-05-07T10:59:56;5.83;;;1.70;;
70367;SDS011;57789;53.868;10.728;2023-05-07T11:02:21;1.50;;;1.40;;
70367;SDS011;57789;53.868;10.728;2023-05-07T11:05:33;2.10;;;1.70;;
70367;SDS011;57789;53.868;10.728;2023-05-07T11:07:55;3.77;;;2.00;;
70367;SDS011;57789;53.868;10.728;2023-05-07T11:10:48;1.70;;;1.50;;
70367;SDS011;57789;53.868;10.728;2023-05-07T11:13:15;2.63;;;1.90;;
70367;SDS011;57789;53.868;10.728;2023-05-07T11:15:42;1.40;;;1.30;;
70367;SDS011;57789;53.868;10.728;2023-05-07T11:18:09;4.67;;;3.50;;
70367;SDS011;57789;53.868;10.728;2023-05-07T11:24:01;3.20;;;2.57;;
70367;SDS011;57789;53.868;10.728;2023-05-07T11:26:03;3.03;;;2.13;;
70367;SDS011;57789;53.868;10.728;2023-05-07T11:28:30;10.13;;;2.07;;
70367;SDS011;57789;53.868;10.728;2023-05-07T11:31:01;3.17;;;1.77;;
70367;SDS011;57789;53.868;10.728;2023-05-07T11:33:28;3.90;;;1.50;;
70367;SDS011;57789;53.868;10.728;2023-05-07T11:35:55;3.60;;;1.53;;
70367;SDS011;57789;53.868;10.728;2023-05-07T11:38:22;1.83;;;1.40;;
70367;SDS011;57789;53.868;10.728;2023-05-07T11:40:58;4.60;;;1.70;;
70367;SDS011;57789;53.868;10.728;2023-05-07T11:43:26;1.90;;;1.43;;
70367;SDS011;57789;53.868;10.728;2023-05-07T11:45:52;3.33;;;2.07;;
70367;SDS011;57789;53.868;10.728;2023-05-07T11:48:18;3.70;;;1.50;;
70367;SDS011;57789;53.868;10.728;2023-05-07T11:50:50;6.23;;;2.13;;
70367;SDS011;57789;53.868;10.728;2023-05-07T11:53:24;3.43;;;1.90;;
70367;SDS011;57789;53.868;10.728;2023-05-07T11:55:57;2.00;;;1.80;;
70367;SDS011;57789;53.868;10.728;2023-05-07T11:58:23;4.40;;;2.57;;
70367;SDS011;57789;53.868;10.728;2023-05-07T12:00:50;4.20;;;2.43;;
70367;SDS011;57789;53.868;10.728;2023-05-07T12:03:17;3.50;;;2.10;;
70367;SDS011;57789;53.868;10.728;2023-05-07T12:05:44;2.23;;;1.57;;
70367;SDS011;57789;53.868;10.728;2023-05-07T12:08:16;1.27;;;1.17;;
70367;SDS011;57789;53.868;10.728;2023-05-07T12:10:43;2.47;;;1.70;;
70367;SDS011;57789;53.868;10.728;2023-05-07T12:13:20;2.03;;;1.83;;
70367;SDS011;57789;53.868;10.728;2023-05-07T12:15:51;1.53;;;1.30;;
70367;SDS011;57789;53.868;10.728;2023-05-07T12:18:17;3.33;;;2.27;;
70367;SDS011;57789;53.868;10.728;2023-05-07T12:20:44;2.10;;;1.90;;
70367;SDS011;57789;53.868;10.728;2023-05-07T12:23:10;2.70;;;1.63;;
70367;SDS011;57789;53.868;10.728;2023-05-07T12:25:38;3.07;;;1.83;;
70367;SDS011;57789;53.868;10.728;2023-05-07T12:28:05;2.87;;;1.70;;
70367;SDS011;57789;53.868;10.728;2023-05-07T12:30:36;2.03;;;1.53;;
70367;SDS011;57789;53.868;10.728;2023-05-07T12:33:03;5.07;;;2.93;;
70367;SDS011;57789;53.868;10.728;2023-05-07T12:35:29;1.60;;;1.50;;
70367;SDS011;57789;53.868;10.728;2023-05-07T12:37:57;3.27;;;1.80;;
70367;SDS011;57789;53.868;10.728;2023-05-07T12:40:34;5.80;;;2.20;;
70367;SDS011;57789;53.868;10.728;2023-05-07T12:43:04;3.37;;;3.07;;
70367;SDS011;57789;53.868;10.728;2023-05-07T12:45:29;7.03;;;2.40;;
70367;SDS011;57789;53.868;10.728;2023-05-07T12:47:55;4.73;;;2.70;;
70367;SDS011;57789;53.868;10.728;2023-05-07T12:50:26;3.97;;;2.00;;
70367;SDS011;57789;53.868;10.728;2023-05-07T12:52:56;2.23;;;1.60;;
70367;SDS011;57789;53.868;10.728;2023-05-07T12:55:22;3.00;;;1.90;;
70367;SDS011;57789;53.868;10.728;2023-05-07T12:57:48;1.77;;;1.63;;
70367;SDS011;57789;53.868;10.728;2023-05-07T13:00:16;1.97;;;1.67;;
70367;SDS011;57789;53.868;10.728;2023-05-07T13:02:43;2.47;;;1.60;;
70367;SDS011;57789;53.868;10.728;2023-05-07T13:05:10;2.90;;;2.10;;
70367;SDS011;57789;53.868;10.728;2023-05-07T13:07:36;3.40;;;2.50;;
70367;SDS011;57789;53.868;10.728;2023-05-07T13:10:02;4.07;;;2.70;;
70367;SDS011;57789;53.868;10.728;2023-05-07T13:12:32;1.67;;;1.40;;
70367;SDS011;57789;53.868;10.728;2023-05-07T13:14:57;3.57;;;2.00;;
70367;SDS011;57789;53.868;10.728;2023-05-07T13:17:24;3.17;;;1.50;;
70367;SDS011;57789;53.868;10.728;2023-05-07T13:19:49;6.57;;;3.20;;
70367;SDS011;57789;53.868;10.728;2023-05-07T13:22:15;4.80;;;1.40;;
70367;SDS011;57789;53.868;10.728;2023-05-07T13:24:41;3.10;;;2.10;;
70367;SDS011;57789;53.868;10.728;2023-05-07T13:27:08;2.87;;;2.50;;
70367;SDS011;57789;53.868;10.728;2023-05-07T13:29:34;3.77;;;2.53;;
70367;SDS011;57789;53.868;10.728;2023-05-07T13:32:00;6.90;;;1.93;;
70367;SDS011;57789;53.868;10.728;2023-05-07T13:34:26;2.80;;;2.50;;
70367;SDS011;57789;53.868;10.728;2023-05-07T13:36:53;3.27;;;1.80;;
70367;SDS011;57789;53.868;10.728;2023-05-07T13:39:18;2.53;;;1.50;;
70367;SDS011;57789;53.868;10.728;2023-05-07T13:41:45;15.43;;;2.00;;
70367;SDS011;57789;53.868;10.728;2023-05-07T13:44:10;6.03;;;4.03;;
70367;SDS011;57789;53.868;10.728;2023-05-07T13:46:36;3.13;;;1.90;;
70367;SDS011;57789;53.868;10.728;2023-05-07T13:49:02;2.40;;;1.97;;
70367;SDS011;57789;53.868;10.728;2023-05-07T13:51:28;3.00;;;2.20;;
70367;SDS011;57789;53.868;10.728;2023-05-07T13:53:53;2.00;;;1.53;;
70367;SDS011;57789;53.868;10.728;2023-05-07T13:56:19;3.00;;;2.10;;
70367;SDS011;57789;53.868;10.728;2023-05-07T13:58:46;3.73;;;1.90;;
70367;SDS011;57789;53.868;10.728;2023-05-07T14:01:11;2.60;;;2.00;;
70367;SDS011;57789;53.868;10.728;2023-05-07T14:03:37;7.30;;;2.03;;
70367;SDS011;57789;53.868;10.728;2023-05-07T14:06:04;4.73;;;1.90;;
70367;SDS011;57789;53.868;10.728;2023-05-07T14:08:30;6.43;;;3.20;;
70367;SDS011;57789;53.868;10.728;2023-05-07T14:10:56;3.93;;;2.50;;
70367;SDS011;57789;53.868;10.728;2023-05-07T14:13:22;2.10;;;1.80;;
70367;SDS011;57789;53.868;10.728;2023-05-07T14:15:48;4.60;;;2.80;;
70367;SDS011;57789;53.868;10.728;2023-05-07T14:18:14;2.20;;;2.00;;
70367;SDS011;57789;53.868;10.728;2023-05-07T14:20:40;4.70;;;2.30;;
70367;SDS011;57789;53.868;10.728;2023-05-07T14:23:11;3.00;;;1.97;;
70367;SDS011;57789;53.868;10.728;2023-05-07T14:25:37;5.70;;;3.27;;
70367;SDS011;57789;53.868;10.728;2023-05-07T14:28:03;4.67;;;3.50;;
70367;SDS011;57789;53.868;10.728;2023-05-07T14:30:28;2.13;;;1.67;;
70367;SDS011;57789;53.868;10.728;2023-05-07T14:32:54;3.20;;;1.73;;
70367;SDS011;57789;53.868;10.728;2023-05-07T14:35:20;2.20;;;1.90;;
70367;SDS011;57789;53.868;10.728;2023-05-07T14:37:46;2.33;;;1.67;;
70367;SDS011;57789;53.868;10.728;2023-05-07T14:40:12;2.20;;;1.73;;
70367;SDS011;57789;53.868;10.728;2023-05-07T14:42:38;2.00;;;1.57;;
70367;SDS011;57789;53.868;10.728;2023-05-07T14:45:04;2.97;;;2.00;;
70367;SDS011;57789;53.868;10.728;2023-05-07T14:47:30;1.93;;;1.70;;